Southern Illinois Airport
KMDH : now visible

Airfield :











YOU CAN JOIN US ON...

 
LOGIN :

Register | Disclaimer

   EN    FR    IT 

 









Legend :    VFR   Marginal VFR   IFR   Intensive IFR   Very Intensive IFR
Visi :
Ceiling :
>= 8 km
>= 3000ft
5 to 8 km
1000 to 3000 ft
1500m to 5 km
500 to 1000 ft
800 to 1500m
200 to 500 ft
< 800m
< 200 ft
Symbols :   Thunderstorms  Fog  Heavy snow  Heavy precipitations  Wind > 20 kt






- Airport Elevation : 411 ft
- IATA code : MDH


KMDH - Southern Illinois

CURRENT METAR :
  • 152352Z 20010KT 2 1/2SM -SN BR FEW010 FEW016 OVC027 01/M01 A2960 RMK AO2 SNB2256 SLP025 P0000 60000 T00061011 10044 20006 51004

EXPIRED METARs :
  • 152252Z 20011KT 6SM BR SCT013 BKN043 OVC050 01/M01 A2959 RMK AO2 SNE29 SLP024 P0000 T00111011
  • 152227Z 20010KT 4SM -SN BR SCT015 BKN043 OVC050 01/M01 A2959 RMK AO2 P0000 T00111011
  • 152213Z 21011KT 2SM -SN BR SCT014 BKN037 OVC050 01/M01 A2959 RMK AO2 P0000 T00111011
  • 152158Z 21010KT 5SM -SN BR SCT016 SCT021 OVC031 01/M01 A2959 RMK AO2 P0000 T00111011
  • 152152Z 20011KT 2 1/2SM -SN BR SCT018 BKN027 OVC046 01/M01 A2959 RMK AO2 SLP023 P0000 T00111011
  • 152127Z 21011KT 1 3/4SM -SN BR FEW018 BKN027 OVC040 01/M01 A2959 RMK AO2 P0000 T00111011
  • 152119Z 21009KT 3SM -SN BR BKN027 OVC038 01/M01 A2959 RMK AO2 P0000 T00111011
  • 152110Z 22008KT 2SM -SN BKN027 OVC038 01/M02 A2959 RMK AO2 P0000 T00111017

TAF N/A
KZKC FIR / North America



MET'MAP, your aeronautical weather chart ! - Copyright ORBIFLY December 2007 - Disclaimer

ORBIFLY MET'MAP TEAM :

Programming & Development : Alexandra Zaïnal
Concept & original design : Baudouin d'Aumeries
Assistance for programming : Marc-Olivier Méhu
Technical & hardware support : Manuel Goepfert

Contact : metmap@orbifly.com




SOURCES & CREDITS :

   NOAA       Earth
Advisory